Time;durP1;ratioP1;P1;durP2;ratioP2;P2;SDS_P1;SDS_P2;PMS_P1;PMS_P2;Temp;Humidity;BMP_temperature;BMP_pressure;BME280_temperature;BME280_humidity;BME280_pressure;Samples;Min_cycle;Max_cycle;Signal;HPM_P1;HPM_P2
2023/10/02 08:04:03;;;;;;;29.25;6.53;;;20.00;77.50;;;;;;5045127;28;20118;-71
2023/10/02 08:06:44;;;;;;;34.83;6.72;;;20.00;77.60;;;;;;5070195;28;20040;-71
2023/10/02 08:11:57;;;;;;;35.17;7.07;;;20.00;77.90;;;;;;5069704;28;20095;-72
2023/10/02 08:14:42;;;;;;;32.83;7.88;;;20.10;77.80;;;;;;5053793;28;20390;-70
2023/10/02 08:19:56;;;;;;;29.00;6.55;;;20.00;78.50;;;;;;5071489;28;20060;-71
2023/10/02 08:22:24;;;;;;;33.20;7.55;;;20.00;78.40;;;;;;5040193;28;20031;-71
2023/10/02 08:24:52;;;;;;;30.30;6.97;;;20.00;78.30;;;;;;5068036;28;20035;-71
2023/10/02 08:27:19;;;;;;;32.53;6.53;;;20.00;78.60;;;;;;5045906;28;20033;-71
2023/10/02 08:29:47;;;;;;;32.85;6.70;;;20.00;78.60;;;;;;5051613;28;20098;-71
2023/10/02 08:32:28;;;;;;;28.08;6.38;;;20.00;78.50;;;;;;5066440;28;20089;-72
2023/10/02 08:34:56;;;;;;;28.33;6.85;;;20.00;78.60;;;;;;5073982;28;20037;-71
2023/10/02 08:37:25;;;;;;;29.90;6.60;;;20.00;78.70;;;;;;5052992;28;20037;-71
2023/10/02 08:39:52;;;;;;;25.15;6.75;;;20.00;78.80;;;;;;5069832;28;20024;-71
2023/10/02 08:42:24;;;;;;;30.38;6.97;;;20.00;78.70;;;;;;5071662;28;20037;-71
2023/10/02 08:44:58;;;;;;;27.40;6.15;;;20.00;78.90;;;;;;5054852;28;20445;-71
2023/10/02 08:47:25;;;;;;;27.55;6.82;;;20.00;79.10;;;;;;5070087;28;20036;-71
2023/10/02 08:50:03;;;;;;;31.17;8.23;;;20.00;79.40;;;;;;5071384;28;20036;-71
2023/10/02 08:52:41;;;;;;;28.92;6.72;;;20.00;79.30;;;;;;5055332;28;20033;-71
2023/10/02 08:55:51;;;;;;;34.42;7.70;;;19.90;79.40;;;;;;5050297;28;20140;-71
2023/10/02 08:58:22;;;;;;;32.35;6.75;;;20.00;79.60;;;;;;5063716;28;20036;-71
2023/10/02 09:03:42;;;;;;;33.78;6.85;;;19.90;79.80;;;;;;5069649;28;20048;-71
2023/10/02 09:53:38;;;;;;;32.15;7.63;;;19.90;81.10;;;;;;5052982;28;20087;-71
2023/10/02 09:56:13;;;;;;;36.65;7.10;;;19.90;81.20;;;;;;5020648;28;20087;-71
2023/10/02 09:58:52;;;;;;;32.13;7.50;;;19.90;81.20;;;;;;5021083;28;20480;-72
2023/10/02 10:03:57;;;;;;;34.10;7.35;;;20.00;81.20;;;;;;5053980;28;20048;-72
2023/10/02 10:06:36;;;;;;;;;;;20.00;81.30;;;;;;5054948;28;20064;-72
2023/10/02 10:09:25;;;;;;;39.20;8.55;;;20.00;81.30;;;;;;5054112;28;19904;-71
2023/10/02 10:14:54;;;;;;;33.80;7.97;;;20.00;81.30;;;;;;5039251;28;20052;-72
2023/10/02 10:17:21;;;;;;;36.05;7.28;;;19.90;81.20;;;;;;5053996;28;20495;-72
2023/10/02 10:20:18;;;;;;;33.40;7.88;;;20.00;81.30;;;;;;5054201;28;20064;-71
2023/10/02 10:22:55;;;;;;;34.35;8.02;;;20.00;81.20;;;;;;5054240;28;20045;-72
2023/10/02 10:27:55;;;;;;;29.98;7.43;;;20.00;81.00;;;;;;5053992;28;20076;-71
2023/10/02 10:30:24;;;;;;;32.83;7.78;;;20.00;81.10;;;;;;5053722;28;20029;-71
2023/10/02 10:35:48;;;;;;;24.15;7.13;;;20.00;81.10;;;;;;5053753;28;20032;-71
2023/10/02 10:40:55;;;;;;;30.00;7.95;;;20.00;81.30;;;;;;5053033;28;20052;-71
2023/10/02 10:46:13;;;;;;;32.17;6.97;;;20.00;81.30;;;;;;5053920;28;20111;-71
2023/10/02 10:48:48;;;;;;;37.03;7.40;;;20.00;81.30;;;;;;5053694;28;20043;-71
2023/10/02 10:51:21;;;;;;;34.92;6.90;;;20.00;81.10;;;;;;5051569;28;20029;-71
2023/10/02 10:53:52;;;;;;;41.35;8.48;;;20.10;81.10;;;;;;5052728;28;20033;-71
2023/10/02 10:56:22;;;;;;;31.45;6.65;;;20.10;81.10;;;;;;5053526;28;20052;-73
2023/10/02 10:59:11;;;;;;;37.08;7.65;;;20.00;81.30;;;;;;5036032;28;20456;-73
2023/10/02 11:04:40;;;;;;;38.67;8.23;;;20.10;81.20;;;;;;5053420;28;20047;-71
2023/10/02 11:07:25;;;;;;;34.45;7.72;;;20.00;81.20;;;;;;5053164;28;20032;-71
2023/10/02 11:10:19;;;;;;;30.00;7.78;;;20.00;81.20;;;;;;5052962;28;20039;-71
2023/10/02 11:12:57;;;;;;;37.20;7.22;;;20.00;81.20;;;;;;5052694;28;20395;-71
2023/10/02 11:15:47;;;;;;;41.33;8.13;;;20.00;81.30;;;;;;5053012;28;20067;-71
2023/10/02 11:18:19;;;;;;;33.78;7.68;;;20.00;81.20;;;;;;5052527;28;20493;-71
2023/10/02 11:20:55;;;;;;;31.05;7.95;;;20.00;81.10;;;;;;5052904;28;20028;-71
2023/10/02 11:23:39;;;;;;;37.28;7.82;;;20.10;81.20;;;;;;5035527;28;20119;-71
2023/10/02 11:26:21;;;;;;;35.83;7.88;;;20.10;81.10;;;;;;5052838;28;20028;-71
2023/10/02 11:28:51;;;;;;;31.13;7.03;;;20.10;81.00;;;;;;5052811;28;20499;-71
2023/10/02 11:31:29;;;;;;;34.50;6.80;;;20.10;81.10;;;;;;5035085;28;20051;-72
2023/10/02 11:34:03;;;;;;;31.00;6.32;;;20.10;81.00;;;;;;5052657;28;20036;-71
2023/10/02 11:36:34;;;;;;;44.35;7.95;;;20.00;81.00;;;;;;5052838;28;20034;-71
2023/10/02 11:39:09;;;;;;;;;;;20.00;81.00;;;;;;5053426;28;20037;-70
2023/10/02 11:41:37;;;;;;;32.38;6.35;;;20.10;81.00;;;;;;5052337;28;19905;-71
2023/10/02 11:44:11;;;;;;;31.92;6.97;;;20.10;80.90;;;;;;5052532;28;20128;-71
2023/10/02 11:46:40;;;;;;;30.13;7.13;;;20.00;80.80;;;;;;5035246;28;20025;-71
2023/10/02 11:49:08;;;;;;;29.27;6.70;;;20.00;80.70;;;;;;5052555;28;20031;-71
2023/10/02 11:51:35;;;;;;;31.48;7.03;;;20.10;80.80;;;;;;5052465;28;20041;-71
2023/10/02 11:54:05;;;;;;;30.10;6.90;;;20.00;80.90;;;;;;5051454;28;20029;-71
2023/10/02 11:56:34;;;;;;;;;;;20.00;81.10;;;;;;5052910;28;20042;-71
2023/10/02 11:59:02;;;;;;;36.40;7.05;;;20.00;81.10;;;;;;5035185;28;20007;-71
2023/10/02 12:01:29;;;;;;;30.92;6.88;;;20.00;81.10;;;;;;5034523;28;20033;-71
2023/10/02 12:03:59;;;;;;;36.95;8.02;;;20.00;81.00;;;;;;5052411;28;20131;-71
2023/10/02 12:06:28;;;;;;;29.80;7.18;;;20.00;80.90;;;;;;5052290;28;20045;-71
2023/10/02 12:08:57;;;;;;;30.95;7.05;;;20.00;81.30;;;;;;5052395;28;20163;-71
2023/10/02 12:11:25;;;;;;;39.83;8.65;;;20.00;81.30;;;;;;5034783;28;20029;-71
2023/10/02 12:13:53;;;;;;;34.50;8.07;;;19.90;81.20;;;;;;5052453;28;20041;-71
2023/10/02 12:16:21;;;;;;;33.30;8.20;;;19.90;81.10;;;;;;5034678;28;20368;-71
2023/10/02 12:18:50;;;;;;;31.92;7.47;;;20.00;81.10;;;;;;5018276;28;20053;-71
2023/10/02 12:21:19;;;;;;;35.58;7.45;;;19.90;81.30;;;;;;5051690;28;20037;-71
2023/10/02 12:23:47;;;;;;;31.75;7.35;;;19.90;81.30;;;;;;5051962;28;20041;-71
2023/10/02 12:26:17;;;;;;;45.50;8.82;;;20.00;81.30;;;;;;5052150;28;20390;-72
2023/10/02 12:28:46;;;;;;;39.47;9.35;;;19.90;81.20;;;;;;5051656;28;20044;-71
2023/10/02 12:31:14;;;;;;;32.30;7.85;;;19.90;81.40;;;;;;5033959;28;20435;-71
2023/10/02 12:33:42;;;;;;;37.88;8.55;;;19.90;81.60;;;;;;5051657;28;20116;-71
2023/10/02 12:36:18;;;;;;;36.90;7.72;;;19.80;81.50;;;;;;5051906;28;20168;-71
2023/10/02 12:38:47;;;;;;;38.25;7.25;;;19.80;81.50;;;;;;5051733;28;20052;-71
2023/10/02 12:41:18;;;;;;;38.25;7.72;;;19.80;81.70;;;;;;5051634;28;20038;-73
2023/10/02 12:43:48;;;;;;;33.30;7.20;;;19.80;81.70;;;;;;5051539;28;20376;-71
2023/10/02 12:46:15;;;;;;;34.05;8.18;;;19.80;81.60;;;;;;5051633;28;20033;-71
2023/10/02 12:48:48;;;;;;;38.80;7.18;;;19.80;81.70;;;;;;5051512;28;20017;-71
2023/10/02 12:51:17;;;;;;;34.28;7.43;;;19.70;81.80;;;;;;5051391;28;20055;-71
2023/10/02 12:53:44;;;;;;;39.55;7.13;;;19.80;81.80;;;;;;5034200;28;20041;-71
2023/10/02 12:56:26;;;;;;;35.80;6.75;;;19.80;81.70;;;;;;5034215;28;20029;-71
2023/10/02 12:58:54;;;;;;;37.75;6.63;;;19.70;82.00;;;;;;5051602;28;20033;-71
2023/10/02 13:01:27;;;;;;;35.75;7.90;;;19.70;81.90;;;;;;5034025;28;20112;-71
2023/10/02 13:03:55;;;;;;;34.53;7.25;;;19.70;82.00;;;;;;5051851;28;20041;-71
2023/10/02 13:06:24;;;;;;;36.53;7.57;;;19.70;82.10;;;;;;5055354;28;20060;-71
2023/10/02 13:08:53;;;;;;;38.63;7.60;;;19.70;82.00;;;;;;5038258;28;20091;-71
2023/10/02 13:11:21;;;;;;;31.37;7.13;;;19.80;82.10;;;;;;5055308;28;20403;-71
2023/10/02 13:13:50;;;;;;;32.63;7.20;;;19.80;82.00;;;;;;5055321;28;20083;-71
2023/10/02 13:16:18;;;;;;;38.95;8.00;;;19.80;82.00;;;;;;5055309;28;20499;-71
2023/10/02 13:18:46;;;;;;;38.65;8.00;;;19.80;82.10;;;;;;5055532;28;20091;-71
2023/10/02 13:21:14;;;;;;;36.95;7.07;;;19.80;82.40;;;;;;5037276;28;20056;-71
2023/10/02 13:23:42;;;;;;;38.33;7.35;;;19.80;82.60;;;;;;5055068;28;20107;-71
2023/10/02 13:26:10;;;;;;;40.17;7.00;;;19.80;82.80;;;;;;5055141;28;20041;-71
2023/10/02 13:28:38;;;;;;;45.42;7.50;;;19.80;83.00;;;;;;5054996;28;20029;-71
2023/10/02 13:31:13;;;;;;;40.50;6.57;;;19.80;83.20;;;;;;5055072;28;20044;-71
2023/10/02 13:33:52;;;;;;;42.03;7.97;;;19.90;83.40;;;;;;5054960;28;20036;-71
2023/10/02 13:36:22;;;;;;;36.53;7.77;;;19.90;83.50;;;;;;5054794;28;20048;-71
2023/10/02 13:38:56;;;;;;;41.05;7.93;;;19.90;83.70;;;;;;5055069;28;20475;-71
2023/10/02 13:41:24;;;;;;;42.92;8.23;;;19.90;83.60;;;;;;5037146;28;20488;-71
2023/10/02 13:43:56;;;;;;;37.45;7.85;;;19.90;83.70;;;;;;5054649;28;20032;-71
2023/10/02 13:46:24;;;;;;;38.45;7.22;;;19.90;83.70;;;;;;5054874;28;20086;-71
2023/10/02 13:48:54;;;;;;;41.15;7.97;;;19.90;83.90;;;;;;5054519;28;20032;-71
2023/10/02 13:51:22;;;;;;;44.28;8.18;;;19.80;83.90;;;;;;5054551;28;20023;-71
2023/10/02 13:53:53;;;;;;;53.67;7.88;;;19.80;84.00;;;;;;5054767;28;20044;-71
2023/10/02 13:56:27;;;;;;;45.30;9.05;;;19.80;84.10;;;;;;5054611;28;20025;-71
2023/10/02 13:58:54;;;;;;;36.03;7.65;;;19.80;84.20;;;;;;5054638;28;20047;-71
2023/10/02 14:01:24;;;;;;;44.97;7.25;;;19.80;84.30;;;;;;5036437;28;20403;-71
2023/10/02 14:03:55;;;;;;;42.72;8.07;;;19.80;84.50;;;;;;5054577;28;20045;-71
2023/10/02 14:06:24;;;;;;;41.05;7.75;;;19.80;84.50;;;;;;5054532;28;20450;-71
2023/10/02 14:08:55;;;;;;;41.55;7.72;;;19.80;84.60;;;;;;5054470;28;20029;-71
2023/10/02 14:11:23;;;;;;;35.65;7.75;;;19.70;84.60;;;;;;5054433;28;20025;-71
2023/10/02 14:13:53;;;;;;;39.28;7.47;;;19.70;84.50;;;;;;5054203;28;20037;-71
2023/10/02 14:16:21;;;;;;;44.60;8.02;;;19.80;84.60;;;;;;5019934;28;20025;-71
2023/10/02 14:18:56;;;;;;;40.40;7.85;;;19.70;84.70;;;;;;5036739;28;20134;-71
2023/10/02 14:21:25;;;;;;;47.17;7.90;;;19.70;84.70;;;;;;5054092;28;20419;-71
2023/10/02 14:23:53;;;;;;;42.40;7.82;;;19.70;84.70;;;;;;5053877;28;20083;-71
2023/10/02 14:26:21;;;;;;;40.90;7.38;;;19.70;84.80;;;;;;5054004;28;20033;-71
2023/10/02 14:28:49;;;;;;;38.55;7.85;;;19.70;84.90;;;;;;5036762;28;20491;-71
2023/10/02 14:31:32;;;;;;;40.22;7.95;;;19.70;84.80;;;;;;5053847;28;20087;-71
2023/10/02 14:34:00;;;;;;;40.25;7.97;;;19.70;84.90;;;;;;5037098;28;20536;-71
2023/10/02 14:36:28;;;;;;;43.75;7.97;;;19.60;85.00;;;;;;5036411;28;20036;-71
2023/10/02 14:38:57;;;;;;;43.13;8.00;;;19.60;85.10;;;;;;5036271;28;20061;-71
2023/10/02 14:41:26;;;;;;;34.08;7.13;;;19.60;85.10;;;;;;5053802;28;20045;-71
2023/10/02 14:43:54;;;;;;;35.83;7.30;;;19.60;85.10;;;;;;5053776;28;20040;-71
2023/10/02 14:46:21;;;;;;;43.53;7.80;;;19.60;85.20;;;;;;5053719;28;20033;-71
2023/10/02 14:48:49;;;;;;;36.08;7.15;;;19.60;85.20;;;;;;5053598;28;20025;-71
2023/10/02 14:51:17;;;;;;;40.78;7.78;;;19.50;85.20;;;;;;5053379;28;20033;-71
2023/10/02 14:53:45;;;;;;;41.33;8.70;;;19.50;85.30;;;;;;5053771;28;20037;-71
2023/10/02 14:56:12;;;;;;;45.03;8.30;;;19.50;85.30;;;;;;5035643;28;20399;-71
2023/10/02 14:58:50;;;;;;;33.33;7.28;;;19.50;85.00;;;;;;5053199;28;20041;-71
2023/10/02 15:01:17;;;;;;;32.22;7.00;;;19.50;85.00;;;;;;5053318;28;20479;-71
2023/10/02 15:03:45;;;;;;;37.90;7.13;;;19.50;85.00;;;;;;5053305;28;20044;-74
2023/10/02 15:06:13;;;;;;;35.53;7.45;;;19.50;85.00;;;;;;5053441;28;20083;-71
2023/10/02 15:08:40;;;;;;;38.63;8.25;;;19.40;85.10;;;;;;5053611;28;20499;-71
2023/10/02 15:11:13;;;;;;;42.17;8.20;;;19.30;85.10;;;;;;5053081;28;20052;-71
2023/10/02 15:13:40;;;;;;;38.85;7.20;;;19.30;85.20;;;;;;5052848;28;20488;-71
2023/10/02 15:16:11;;;;;;;38.35;7.30;;;19.30;85.10;;;;;;5053376;28;20113;-70
2023/10/02 15:18:39;;;;;;;41.75;7.18;;;19.30;85.20;;;;;;5053015;28;20048;-71
2023/10/02 15:21:10;;;;;;;35.30;7.20;;;19.30;85.10;;;;;;5052917;28;20061;-71
2023/10/02 15:23:39;;;;;;;43.20;7.50;;;19.30;85.30;;;;;;5052722;28;20036;-71
2023/10/02 15:26:07;;;;;;;38.33;7.83;;;19.30;85.30;;;;;;5053338;28;20107;-71
2023/10/02 15:28:34;;;;;;;43.47;8.05;;;19.30;85.50;;;;;;5035123;28;20058;-71
2023/10/02 15:31:02;;;;;;;38.55;7.22;;;19.30;85.50;;;;;;5052898;28;20036;-71
2023/10/02 15:33:38;;;;;;;35.10;7.72;;;19.30;85.50;;;;;;5052760;28;20403;-71
2023/10/02 15:36:06;;;;;;;42.30;7.55;;;19.30;85.60;;;;;;5052646;28;20033;-71
2023/10/02 15:38:34;;;;;;;42.22;7.80;;;19.20;85.60;;;;;;5034852;28;20037;-71
2023/10/02 15:41:02;;;;;;;38.22;7.60;;;19.30;85.60;;;;;;5052666;28;20060;-71
2023/10/02 15:43:29;;;;;;;35.03;7.68;;;19.30;85.70;;;;;;5052578;28;20033;-71
2023/10/02 15:45:58;;;;;;;43.60;8.50;;;19.30;85.80;;;;;;5052685;28;20048;-71
2023/10/02 15:48:25;;;;;;;41.17;8.35;;;19.30;85.70;;;;;;5052597;28;20068;-71
2023/10/02 15:50:53;;;;;;;36.65;7.68;;;19.30;85.80;;;;;;5052386;28;20033;-71
2023/10/02 15:53:21;;;;;;;33.90;7.93;;;19.30;85.80;;;;;;5052373;28;20049;-71
2023/10/02 15:55:48;;;;;;;37.03;8.10;;;19.30;85.90;;;;;;5052577;28;20106;-71
2023/10/02 15:58:15;;;;;;;40.72;8.15;;;19.30;86.00;;;;;;5052542;28;20159;-71
2023/10/02 16:00:45;;;;;;;38.15;7.72;;;19.30;86.10;;;;;;5052340;28;20036;-71
2023/10/02 16:03:12;;;;;;;35.40;7.03;;;19.30;86.10;;;;;;5051915;28;20175;-71
2023/10/02 16:05:40;;;;;;;39.15;8.30;;;19.30;86.10;;;;;;5050992;28;20126;-72
2023/10/02 16:08:08;;;;;;;53.05;8.07;;;19.30;86.00;;;;;;5052029;28;20033;-71
2023/10/02 16:10:35;;;;;;;40.15;8.07;;;19.30;86.00;;;;;;5052080;28;20487;-71
2023/10/02 16:13:03;;;;;;;35.10;7.53;;;19.20;86.00;;;;;;5052216;28;20144;-71
2023/10/02 16:15:34;;;;;;;34.92;7.43;;;19.30;86.00;;;;;;5052455;28;20127;-70
2023/10/02 16:18:02;;;;;;;35.00;7.00;;;19.20;86.10;;;;;;5034510;28;20048;-71
2023/10/02 16:20:29;;;;;;;36.17;8.38;;;19.20;86.20;;;;;;5051964;28;20033;-70
2023/10/02 16:23:00;;;;;;;40.55;8.10;;;19.20;86.40;;;;;;5052156;28;20059;-71
2023/10/02 16:25:30;;;;;;;41.63;7.57;;;19.20;86.60;;;;;;5052049;28;20075;-71
2023/10/02 16:27:57;;;;;;;41.20;7.35;;;19.20;86.50;;;;;;5035007;28;20494;-71
2023/10/02 16:30:25;;;;;;;39.38;7.85;;;19.20;86.60;;;;;;5052117;28;20044;-71
2023/10/02 16:32:53;;;;;;;44.45;8.68;;;19.10;86.60;;;;;;5051907;28;20116;-71
2023/10/02 16:35:29;;;;;;;41.97;7.68;;;19.10;86.80;;;;;;5052078;28;20033;-70
2023/10/02 16:38:00;;;;;;;39.22;7.43;;;19.10;86.80;;;;;;5052102;28;20033;-71
2023/10/02 16:40:27;;;;;;;42.30;8.10;;;19.10;86.70;;;;;;5054429;28;20478;-70
2023/10/02 16:42:56;;;;;;;37.72;8.70;;;19.00;87.10;;;;;;5056024;28;20121;-71
2023/10/02 16:45:23;;;;;;;35.55;7.28;;;19.00;87.00;;;;;;5055945;28;20562;-71
2023/10/02 16:47:52;;;;;;;37.53;8.57;;;19.00;87.10;;;;;;5056141;28;20035;-71
2023/10/02 16:50:20;;;;;;;38.85;8.45;;;19.00;87.10;;;;;;5055533;28;20037;-71
2023/10/02 16:52:47;;;;;;;40.38;8.55;;;19.00;87.10;;;;;;5055629;28;20052;-71
2023/10/02 16:55:19;;;;;;;34.75;8.35;;;19.00;87.00;;;;;;5055895;28;20391;-71
2023/10/02 16:57:48;;;;;;;35.72;7.95;;;19.00;87.00;;;;;;5038224;28;20040;-71
2023/10/02 17:00:16;;;;;;;41.05;8.23;;;19.00;87.00;;;;;;5055662;28;20029;-71
2023/10/02 17:02:46;;;;;;;36.63;7.78;;;19.00;86.70;;;;;;5055930;28;20033;-71
2023/10/02 17:05:16;;;;;;;39.33;7.95;;;19.00;86.90;;;;;;5038291;28;20504;-71
2023/10/02 17:07:44;;;;;;;35.58;7.38;;;18.90;86.90;;;;;;5038369;28;20079;-71
2023/10/02 17:10:20;;;;;;;41.63;8.32;;;18.90;87.10;;;;;;5055920;28;20376;-71
2023/10/02 17:12:51;;;;;;;46.80;8.38;;;18.80;87.10;;;;;;5055609;28;20029;-71
2023/10/02 17:15:19;;;;;;;39.30;8.45;;;18.80;87.00;;;;;;5037670;28;20368;-71
2023/10/02 17:17:50;;;;;;;40.65;8.25;;;18.80;87.10;;;;;;5055421;28;20459;-71
2023/10/02 17:20:20;;;;;;;36.83;7.40;;;18.80;87.10;;;;;;5038105;28;20119;-71
2023/10/02 17:22:48;;;;;;;35.50;7.68;;;18.80;87.20;;;;;;5055253;28;20033;-71
2023/10/02 17:25:25;;;;;;;39.67;8.23;;;18.80;87.10;;;;;;5055085;28;20063;-71
2023/10/02 17:27:53;;;;;;;46.88;8.48;;;18.80;87.10;;;;;;5055414;28;20380;-71
2023/10/02 17:30:21;;;;;;;39.85;8.80;;;18.80;87.50;;;;;;5055269;28;20033;-71
2023/10/02 17:32:48;;;;;;;45.35;8.82;;;18.80;87.60;;;;;;5037700;28;20036;-71
2023/10/02 17:35:16;;;;;;;45.67;8.27;;;18.80;87.70;;;;;;5054946;28;20112;-71
2023/10/02 17:37:44;;;;;;;48.83;7.80;;;18.80;87.80;;;;;;5055551;28;20033;-71
2023/10/02 17:40:11;;;;;;;38.50;7.95;;;18.80;88.10;;;;;;5054862;28;20076;-71
2023/10/02 17:42:39;;;;;;;36.35;7.78;;;18.80;88.10;;;;;;5054808;28;20033;-71
2023/10/02 17:45:07;;;;;;;44.05;8.05;;;18.80;88.00;;;;;;5054591;28;20041;-71
2023/10/02 17:47:38;;;;;;;42.13;8.98;;;18.90;88.20;;;;;;5054664;28;20041;-71
2023/10/02 17:50:07;;;;;;;39.63;7.90;;;18.90;87.90;;;;;;5054702;28;20391;-71
2023/10/02 17:52:35;;;;;;;41.15;8.52;;;19.00;87.80;;;;;;5054291;28;20099;-71
2023/10/02 17:55:02;;;;;;;39.13;7.28;;;18.90;87.90;;;;;;5054649;28;20029;-71
2023/10/02 17:57:30;;;;;;;44.33;8.43;;;18.90;87.80;;;;;;5037129;28;20399;-71
2023/10/02 18:00:00;;;;;;;45.20;8.25;;;19.00;87.90;;;;;;5036590;28;20063;-71
2023/10/02 18:02:28;;;;;;;47.80;8.52;;;18.90;88.00;;;;;;5054626;28;20040;-71
2023/10/02 18:04:55;;;;;;;49.80;7.95;;;18.90;88.10;;;;;;5054281;28;20446;-71
2023/10/02 18:07:23;;;;;;;43.40;8.73;;;18.90;87.90;;;;;;5054600;28;20029;-71
2023/10/02 18:09:53;;;;;;;39.65;8.20;;;18.90;87.90;;;;;;5054514;28;20029;-71
2023/10/02 18:12:20;;;;;;;;;;;18.90;87.80;;;;;;5054636;28;20175;-71
2023/10/02 18:14:49;;;;;;;42.33;7.88;;;19.00;87.80;;;;;;5054323;28;19912;-71
2023/10/02 18:17:16;;;;;;;46.40;9.23;;;19.00;87.50;;;;;;5054385;28;20467;-71
2023/10/02 18:19:46;;;;;;;44.33;8.25;;;18.90;87.40;;;;;;5054150;28;20025;-71
2023/10/02 18:22:14;;;;;;;38.10;8.23;;;18.90;87.30;;;;;;5054391;28;20389;-71
2023/10/02 18:24:42;;;;;;;38.65;9.02;;;19.00;87.30;;;;;;5054259;28;20037;-71
2023/10/02 18:27:10;;;;;;;35.30;7.68;;;18.90;87.20;;;;;;5053829;28;20116;-71
2023/10/02 18:29:37;;;;;;;46.47;8.40;;;18.90;87.20;;;;;;5053981;28;20120;-71
2023/10/02 18:32:05;;;;;;;37.70;7.72;;;18.90;87.10;;;;;;5053930;28;20035;-70
2023/10/02 18:34:33;;;;;;;34.10;6.35;;;18.90;87.00;;;;;;5053863;28;20041;-71
2023/10/02 18:37:00;;;;;;;36.78;8.25;;;18.90;86.90;;;;;;5053878;28;20458;-71
2023/10/02 18:39:27;;;;;;;36.22;7.25;;;18.80;87.00;;;;;;5053523;28;20476;-71
2023/10/02 18:41:55;;;;;;;34.78;7.00;;;18.80;86.90;;;;;;5053824;28;20040;-71
2023/10/02 18:44:26;;;;;;;36.33;7.10;;;18.80;87.00;;;;;;5053661;28;20044;-71
2023/10/02 18:46:54;;;;;;;;;;;18.80;87.00;;;;;;5054316;28;20037;-71
2023/10/02 18:49:21;;;;;;;37.75;6.93;;;18.80;87.00;;;;;;5036003;28;20287;-71
2023/10/02 18:51:49;;;;;;;33.22;7.43;;;18.80;87.00;;;;;;5053418;28;20052;-71
2023/10/02 18:54:18;;;;;;;33.42;6.90;;;18.70;86.90;;;;;;5053698;28;20040;-71
2023/10/02 18:56:45;;;;;;;36.25;7.80;;;18.70;87.20;;;;;;5053476;28;20506;-71
2023/10/02 18:59:12;;;;;;;38.28;7.00;;;18.70;87.20;;;;;;5053650;28;20068;-72
2023/10/02 19:01:40;;;;;;;37.25;7.53;;;18.70;87.10;;;;;;5053451;28;20120;-71
2023/10/02 19:04:08;;;;;;;38.78;7.68;;;18.70;87.00;;;;;;5052762;28;20473;-71
2023/10/02 19:06:35;;;;;;;36.42;7.75;;;18.70;87.00;;;;;;5053524;28;20049;-71
2023/10/02 19:09:07;;;;;;;34.03;7.43;;;18.70;86.90;;;;;;5053188;28;20454;-71
2023/10/02 19:11:34;;;;;;;32.95;7.55;;;18.70;86.90;;;;;;5053215;28;20054;-71
2023/10/02 19:14:02;;;;;;;35.95;7.70;;;18.60;86.90;;;;;;5053334;28;20032;-71
2023/10/02 19:16:29;;;;;;;34.38;6.72;;;18.50;86.90;;;;;;5053150;28;20104;-71
2023/10/02 19:18:56;;;;;;;32.65;7.32;;;18.50;87.00;;;;;;5053185;28;20043;-71
2023/10/02 19:21:24;;;;;;;31.08;6.95;;;18.50;87.00;;;;;;5035076;28;20545;-71
2023/10/02 19:23:54;;;;;;;33.47;6.45;;;18.50;86.50;;;;;;5052721;28;20471;-71
2023/10/02 19:26:21;;;;;;;;;;;18.50;86.40;;;;;;5053492;28;20495;-71
2023/10/02 19:28:49;;;;;;;32.80;7.70;;;18.50;86.40;;;;;;5053195;28;19920;-71
2023/10/02 19:31:16;;;;;;;32.35;6.88;;;18.50;86.10;;;;;;5052601;28;20446;-71
2023/10/02 19:33:44;;;;;;;32.63;6.80;;;18.50;86.30;;;;;;5035227;28;20240;-71
2023/10/02 19:36:11;;;;;;;35.15;7.20;;;18.40;86.30;;;;;;5052920;28;20029;-71
2023/10/02 19:38:39;;;;;;;36.63;8.45;;;18.40;86.20;;;;;;5053168;28;20468;-71
2023/10/02 19:41:16;;;;;;;30.55;7.38;;;18.40;86.40;;;;;;5052198;28;20086;-71
2023/10/02 19:43:44;;;;;;;32.35;6.65;;;18.50;86.20;;;;;;5052633;28;20048;-71
2023/10/02 19:46:11;;;;;;;35.63;6.65;;;18.40;86.10;;;;;;5052579;28;20112;-71
2023/10/02 19:48:39;;;;;;;31.30;7.00;;;18.40;86.10;;;;;;5052467;28;20036;-71
2023/10/02 19:51:11;;;;;;;29.45;6.50;;;18.50;86.10;;;;;;5052152;28;20025;-71
2023/10/02 19:53:39;;;;;;;32.72;7.50;;;18.50;86.00;;;;;;5039457;28;20052;-71
2023/10/02 19:56:06;;;;;;;33.35;7.13;;;18.50;86.00;;;;;;5032356;28;20038;-71
2023/10/02 19:58:34;;;;;;;33.53;7.57;;;18.50;85.90;;;;;;5014947;28;20032;-71
2023/10/02 20:01:01;;;;;;;30.42;7.20;;;18.60;85.90;;;;;;5032367;28;20036;-71
2023/10/02 20:03:30;;;;;;;27.90;7.50;;;18.60;85.70;;;;;;5032062;28;20050;-71
2023/10/02 20:06:01;;;;;;;32.20;7.22;;;18.60;85.60;;;;;;5014354;28;20073;-71
2023/10/02 20:08:27;;;;;;;;;;;18.60;85.60;;;;;;5032625;28;20061;-71
2023/10/02 20:10:56;;;;;;;39.40;8.20;;;18.70;85.70;;;;;;5032154;28;19916;-71
2023/10/02 20:13:23;;;;;;;31.40;7.38;;;18.70;85.60;;;;;;5031968;28;20384;-72
2023/10/02 20:15:51;;;;;;;33.22;7.88;;;18.70;85.60;;;;;;5031402;28;20555;-72
2023/10/02 20:18:18;;;;;;;31.27;7.38;;;18.80;85.60;;;;;;5032106;28;20038;-72
2023/10/02 20:20:47;;;;;;;32.17;8.50;;;18.80;85.50;;;;;;5032012;28;20033;-71
2023/10/02 20:23:15;;;;;;;30.35;7.97;;;18.80;85.40;;;;;;5031749;28;20373;-71
2023/10/02 20:25:43;;;;;;;29.42;7.78;;;18.80;85.50;;;;;;5031597;28;20041;-71
2023/10/02 20:28:11;;;;;;;34.08;8.18;;;18.80;85.50;;;;;;5031864;28;20049;-71
2023/10/02 20:30:38;;;;;;;29.55;7.47;;;18.90;85.60;;;;;;5031783;28;20072;-71
2023/10/02 20:33:12;;;;;;;30.63;7.70;;;18.90;85.50;;;;;;5014331;28;20109;-71
2023/10/02 20:35:41;;;;;;;27.85;7.60;;;19.00;85.50;;;;;;5031778;28;20029;-71
2023/10/02 20:38:12;;;;;;;32.33;8.15;;;19.00;85.50;;;;;;5032016;28;20392;-71
2023/10/02 20:40:41;;;;;;;29.58;7.40;;;19.00;85.00;;;;;;5031535;28;20403;-71
2023/10/02 20:43:09;;;;;;;24.83;7.30;;;19.10;85.00;;;;;;5031979;28;20491;-71
2023/10/02 20:45:36;;;;;;;31.23;8.07;;;19.20;85.10;;;;;;5031664;28;20037;-71
2023/10/02 20:48:05;;;;;;;25.10;7.07;;;19.10;85.10;;;;;;5013913;28;20395;-71
2023/10/02 20:50:35;;;;;;;26.83;7.97;;;19.20;84.90;;;;;;5031655;28;20050;-71
2023/10/02 20:53:03;;;;;;;24.83;6.82;;;19.20;84.40;;;;;;5047992;28;20098;-71
2023/10/02 20:55:30;;;;;;;28.08;7.32;;;19.30;84.30;;;;;;5034165;28;20551;-71
2023/10/02 20:58:01;;;;;;;26.75;8.02;;;19.30;84.00;;;;;;5051576;28;20388;-71
2023/10/02 21:00:29;;;;;;;29.85;6.43;;;19.40;84.00;;;;;;5034893;28;20037;-71
2023/10/02 21:02:59;;;;;;;26.02;6.57;;;19.40;84.00;;;;;;5051392;28;20039;-71
2023/10/02 21:05:26;;;;;;;;;;;19.50;83.80;;;;;;5052011;28;20052;-71
2023/10/02 21:07:54;;;;;;;26.55;6.00;;;19.50;83.80;;;;;;5051501;28;19911;-71
2023/10/02 21:10:21;;;;;;;19.77;5.25;;;19.60;83.50;;;;;;5051384;28;20423;-71
2023/10/02 21:12:51;;;;;;;22.80;6.28;;;19.60;83.30;;;;;;5051434;28;20116;-71
2023/10/02 21:15:19;;;;;;;29.77;6.43;;;19.70;83.30;;;;;;5051399;28;20041;-71
2023/10/02 21:17:46;;;;;;;24.55;6.47;;;19.70;82.90;;;;;;5051242;28;20491;-71
2023/10/02 21:20:15;;;;;;;28.23;6.60;;;19.80;82.70;;;;;;5051222;28;20498;-71
2023/10/02 21:22:44;;;;;;;32.53;5.97;;;19.80;82.80;;;;;;5051551;28;20116;-71
2023/10/02 21:25:15;;;;;;;22.63;6.10;;;19.90;82.20;;;;;;5051648;28;20048;-71
2023/10/02 21:27:43;;;;;;;23.35;6.03;;;19.90;82.20;;;;;;5054996;28;20033;-72
2023/10/02 21:30:14;;;;;;;24.35;6.15;;;20.00;82.30;;;;;;5054844;28;20029;-71
2023/10/02 21:32:42;;;;;;;21.08;5.90;;;20.00;82.10;;;;;;5054877;28;20033;-71
2023/10/02 21:35:10;;;;;;;20.58;5.90;;;20.10;81.80;;;;;;5037005;28;20079;-71
2023/10/02 21:37:37;;;;;;;18.58;5.63;;;20.20;81.60;;;;;;5054545;28;20040;-71
2023/10/02 21:40:05;;;;;;;29.02;6.55;;;20.20;81.40;;;;;;5054853;28;20041;-71
2023/10/02 21:42:33;;;;;;;27.30;7.82;;;20.30;81.60;;;;;;5054697;28;20121;-71
2023/10/02 21:45:01;;;;;;;25.98;6.18;;;20.40;80.90;;;;;;5055066;28;20060;-71
2023/10/02 21:47:29;;;;;;;24.40;6.43;;;20.50;81.00;;;;;;5054922;28;20052;-71
2023/10/02 21:49:56;;;;;;;18.58;5.90;;;20.60;80.90;;;;;;5054545;28;20037;-71
2023/10/02 21:52:23;;;;;;;20.48;6.28;;;20.60;80.50;;;;;;5054579;28;20037;-71
2023/10/02 21:54:53;;;;;;;19.35;6.20;;;20.60;79.00;;;;;;5054577;28;20052;-71
2023/10/02 21:57:23;;;;;;;21.67;6.55;;;20.80;79.10;;;;;;5054192;28;20426;-72
2023/10/02 21:59:51;;;;;;;20.52;5.88;;;20.80;78.90;;;;;;5054305;28;20037;-71
2023/10/02 22:02:18;;;;;;;18.35;5.93;;;20.90;78.10;;;;;;5054253;28;20534;-71
2023/10/02 22:08:07;;;;;;;21.58;6.25;;;21.10;77.90;;;;;;5054434;28;20063;-71
2023/10/02 22:10:52;;;;;;;18.50;5.20;;;21.20;75.90;;;;;;5054174;28;20033;-72
2023/10/02 22:13:20;;;;;;;18.92;5.70;;;21.30;76.40;;;;;;5039289;28;20048;-72